sensor_id;sensor_type;location;lat;lon;timestamp;temperature;humidity
25108;DHT22;13090;53.422;7.670;2023-08-12T00:00:00;22.80;78.00
25108;DHT22;13090;53.422;7.670;2023-08-12T00:05:21;22.90;78.10
25108;DHT22;13090;53.422;7.670;2023-08-12T00:10:42;22.90;77.60
25108;DHT22;13090;53.422;7.670;2023-08-12T00:16:05;22.90;77.50
25108;DHT22;13090;53.422;7.670;2023-08-12T00:21:25;22.90;77.40
25108;DHT22;13090;53.422;7.670;2023-08-12T00:26:46;22.80;77.30
25108;DHT22;13090;53.422;7.670;2023-08-12T00:32:10;22.70;77.60
25108;DHT22;13090;53.422;7.670;2023-08-12T00:37:31;22.60;79.30
25108;DHT22;13090;53.422;7.670;2023-08-12T00:42:51;22.40;79.40
25108;DHT22;13090;53.422;7.670;2023-08-12T00:48:15;22.40;79.70
25108;DHT22;13090;53.422;7.670;2023-08-12T00:53:36;22.40;80.50
25108;DHT22;13090;53.422;7.670;2023-08-12T00:58:58;22.40;79.90
25108;DHT22;13090;53.422;7.670;2023-08-12T01:04:21;22.40;80.10
25108;DHT22;13090;53.422;7.670;2023-08-12T01:09:42;22.40;80.20
25108;DHT22;13090;53.422;7.670;2023-08-12T01:15:08;22.40;80.20
25108;DHT22;13090;53.422;7.670;2023-08-12T01:20:31;22.40;81.30
25108;DHT22;13090;53.422;7.670;2023-08-12T01:25:53;22.30;80.70
25108;DHT22;13090;53.422;7.670;2023-08-12T01:31:21;22.20;81.30
25108;DHT22;13090;53.422;7.670;2023-08-12T01:36:47;22.20;81.90
25108;DHT22;13090;53.422;7.670;2023-08-12T01:42:12;22.00;81.60
25108;DHT22;13090;53.422;7.670;2023-08-12T01:47:33;22.00;81.90
25108;DHT22;13090;53.422;7.670;2023-08-12T01:52:54;21.90;81.70
25108;DHT22;13090;53.422;7.670;2023-08-12T01:58:17;21.90;82.00
25108;DHT22;13090;53.422;7.670;2023-08-12T02:03:37;21.90;82.80
25108;DHT22;13090;53.422;7.670;2023-08-12T02:08:58;21.90;83.10
25108;DHT22;13090;53.422;7.670;2023-08-12T02:14:21;21.80;83.10
25108;DHT22;13090;53.422;7.670;2023-08-12T02:19:42;21.80;83.60
25108;DHT22;13090;53.422;7.670;2023-08-12T02:25:03;21.80;83.60
25108;DHT22;13090;53.422;7.670;2023-08-12T02:30:25;21.80;83.80
25108;DHT22;13090;53.422;7.670;2023-08-12T02:35:46;21.70;84.10
25108;DHT22;13090;53.422;7.670;2023-08-12T02:41:07;21.70;83.70
25108;DHT22;13090;53.422;7.670;2023-08-12T02:46:29;21.70;84.00
25108;DHT22;13090;53.422;7.670;2023-08-12T02:51:50;21.70;84.20
25108;DHT22;13090;53.422;7.670;2023-08-12T02:57:11;21.70;84.20
25108;DHT22;13090;53.422;7.670;2023-08-12T03:02:33;21.70;84.20
25108;DHT22;13090;53.422;7.670;2023-08-12T03:07:54;21.70;84.30
25108;DHT22;13090;53.422;7.670;2023-08-12T03:13:15;21.70;84.00
25108;DHT22;13090;53.422;7.670;2023-08-12T03:18:37;21.70;84.10
25108;DHT22;13090;53.422;7.670;2023-08-12T03:23:58;21.60;84.30
25108;DHT22;13090;53.422;7.670;2023-08-12T03:29:19;21.60;84.30
25108;DHT22;13090;53.422;7.670;2023-08-12T03:34:41;21.50;84.60
25108;DHT22;13090;53.422;7.670;2023-08-12T03:40:02;21.40;84.80
25108;DHT22;13090;53.422;7.670;2023-08-12T03:45:23;21.40;84.90
25108;DHT22;13090;53.422;7.670;2023-08-12T03:50:45;21.40;85.00
25108;DHT22;13090;53.422;7.670;2023-08-12T03:56:06;21.40;85.30
25108;DHT22;13090;53.422;7.670;2023-08-12T04:01:27;21.40;85.20
25108;DHT22;13090;53.422;7.670;2023-08-12T04:06:49;21.30;85.20
25108;DHT22;13090;53.422;7.670;2023-08-12T04:12:10;21.30;85.60
25108;DHT22;13090;53.422;7.670;2023-08-12T04:17:31;21.30;85.70
25108;DHT22;13090;53.422;7.670;2023-08-12T04:22:53;21.30;85.70
25108;DHT22;13090;53.422;7.670;2023-08-12T04:28:15;21.30;86.40
25108;DHT22;13090;53.422;7.670;2023-08-12T04:33:36;21.30;86.20
25108;DHT22;13090;53.422;7.670;2023-08-12T04:38:58;21.30;86.20
25108;DHT22;13090;53.422;7.670;2023-08-12T04:44:19;21.30;86.60
25108;DHT22;13090;53.422;7.670;2023-08-12T04:49:40;21.30;86.50
25108;DHT22;13090;53.422;7.670;2023-08-12T04:55:02;21.30;86.50
25108;DHT22;13090;53.422;7.670;2023-08-12T05:00:23;21.40;86.90
25108;DHT22;13090;53.422;7.670;2023-08-12T05:05:48;21.50;86.70
25108;DHT22;13090;53.422;7.670;2023-08-12T05:11:10;21.60;86.70
25108;DHT22;13090;53.422;7.670;2023-08-12T05:16:30;21.70;86.90
25108;DHT22;13090;53.422;7.670;2023-08-12T05:21:52;21.80;86.80
25108;DHT22;13090;53.422;7.670;2023-08-12T05:27:14;21.90;86.80
25108;DHT22;13090;53.422;7.670;2023-08-12T05:32:35;22.10;86.90
25108;DHT22;13090;53.422;7.670;2023-08-12T05:37:56;22.20;86.80
25108;DHT22;13090;53.422;7.670;2023-08-12T05:43:18;22.30;86.50
25108;DHT22;13090;53.422;7.670;2023-08-12T05:48:39;22.50;86.60
25108;DHT22;13090;53.422;7.670;2023-08-12T05:54:00;22.50;85.90
25108;DHT22;13090;53.422;7.670;2023-08-12T05:59:22;22.50;85.90
25108;DHT22;13090;53.422;7.670;2023-08-12T06:04:43;22.50;86.60
25108;DHT22;13090;53.422;7.670;2023-08-12T06:10:04;22.60;86.60
25108;DHT22;13090;53.422;7.670;2023-08-12T06:15:26;22.70;86.90
25108;DHT22;13090;53.422;7.670;2023-08-12T06:20:47;23.00;87.40
25108;DHT22;13090;53.422;7.670;2023-08-12T06:26:08;23.20;86.70
25108;DHT22;13090;53.422;7.670;2023-08-12T06:31:30;23.50;86.90
25108;DHT22;13090;53.422;7.670;2023-08-12T06:36:51;23.70;86.00
25108;DHT22;13090;53.422;7.670;2023-08-12T06:42:12;23.90;85.10
25108;DHT22;13090;53.422;7.670;2023-08-12T06:47:35;24.00;84.70
25108;DHT22;13090;53.422;7.670;2023-08-12T06:52:56;24.10;85.60
25108;DHT22;13090;53.422;7.670;2023-08-12T06:58:17;24.30;85.20
25108;DHT22;13090;53.422;7.670;2023-08-12T07:03:39;24.60;85.00
25108;DHT22;13090;53.422;7.670;2023-08-12T07:08:59;24.90;85.50
25108;DHT22;13090;53.422;7.670;2023-08-12T07:14:21;25.70;86.60
25108;DHT22;13090;53.422;7.670;2023-08-12T07:19:43;26.40;83.70
25108;DHT22;13090;53.422;7.670;2023-08-12T07:25:04;26.60;80.80
25108;DHT22;13090;53.422;7.670;2023-08-12T07:30:26;26.40;79.90
25108;DHT22;13090;53.422;7.670;2023-08-12T07:35:48;26.20;80.20
25108;DHT22;13090;53.422;7.670;2023-08-12T07:41:08;26.00;81.00
25108;DHT22;13090;53.422;7.670;2023-08-12T07:46:29;26.20;82.00
25108;DHT22;13090;53.422;7.670;2023-08-12T07:51:52;26.40;81.50
25108;DHT22;13090;53.422;7.670;2023-08-12T07:57:12;26.70;80.70
25108;DHT22;13090;53.422;7.670;2023-08-12T08:02:33;26.80;79.90
25108;DHT22;13090;53.422;7.670;2023-08-12T08:07:56;26.70;79.30
25108;DHT22;13090;53.422;7.670;2023-08-12T08:13:17;26.60;78.90
25108;DHT22;13090;53.422;7.670;2023-08-12T08:18:38;26.40;78.90
25108;DHT22;13090;53.422;7.670;2023-08-12T08:24:00;26.20;79.30
25108;DHT22;13090;53.422;7.670;2023-08-12T08:29:21;26.10;80.30
25108;DHT22;13090;53.422;7.670;2023-08-12T08:34:42;25.80;79.50
25108;DHT22;13090;53.422;7.670;2023-08-12T08:40:06;25.60;79.70
25108;DHT22;13090;53.422;7.670;2023-08-12T08:45:28;25.30;80.20
25108;DHT22;13090;53.422;7.670;2023-08-12T08:50:49;25.10;80.60
25108;DHT22;13090;53.422;7.670;2023-08-12T08:56:12;24.90;81.20
25108;DHT22;13090;53.422;7.670;2023-08-12T09:01:36;24.70;82.00
25108;DHT22;13090;53.422;7.670;2023-08-12T09:06:58;24.50;82.80
25108;DHT22;13090;53.422;7.670;2023-08-12T09:12:21;24.40;83.10
25108;DHT22;13090;53.422;7.670;2023-08-12T09:17:43;24.30;83.60
25108;DHT22;13090;53.422;7.670;2023-08-12T09:23:04;24.20;84.00
25108;DHT22;13090;53.422;7.670;2023-08-12T09:28:26;24.10;84.10
25108;DHT22;13090;53.422;7.670;2023-08-12T09:33:47;24.00;84.40
25108;DHT22;13090;53.422;7.670;2023-08-12T09:39:08;23.90;85.00
25108;DHT22;13090;53.422;7.670;2023-08-12T09:44:34;23.80;85.10
25108;DHT22;13090;53.422;7.670;2023-08-12T09:49:55;23.60;86.50
25108;DHT22;13090;53.422;7.670;2023-08-12T09:55:17;23.60;86.80
25108;DHT22;13090;53.422;7.670;2023-08-12T10:00:39;23.70;87.00
25108;DHT22;13090;53.422;7.670;2023-08-12T10:06:01;23.70;86.70
25108;DHT22;13090;53.422;7.670;2023-08-12T10:11:22;23.70;86.10
25108;DHT22;13090;53.422;7.670;2023-08-12T10:16:46;23.60;85.90
25108;DHT22;13090;53.422;7.670;2023-08-12T10:22:09;23.50;86.60
25108;DHT22;13090;53.422;7.670;2023-08-12T10:27:31;23.40;87.00
25108;DHT22;13090;53.422;7.670;2023-08-12T10:32:54;23.40;87.10
25108;DHT22;13090;53.422;7.670;2023-08-12T10:38:17;23.40;87.80
25108;DHT22;13090;53.422;7.670;2023-08-12T10:43:49;23.40;87.70
25108;DHT22;13090;53.422;7.670;2023-08-12T10:49:11;23.40;88.70
25108;DHT22;13090;53.422;7.670;2023-08-12T10:54:32;23.40;87.80
25108;DHT22;13090;53.422;7.670;2023-08-12T10:59:54;23.30;87.80
25108;DHT22;13090;53.422;7.670;2023-08-12T11:05:17;23.20;87.80
25108;DHT22;13090;53.422;7.670;2023-08-12T11:10:38;23.10;88.30
25108;DHT22;13090;53.422;7.670;2023-08-12T11:16:07;23.10;88.20
25108;DHT22;13090;53.422;7.670;2023-08-12T11:21:30;23.00;88.90
25108;DHT22;13090;53.422;7.670;2023-08-12T11:26:51;23.00;88.80
25108;DHT22;13090;53.422;7.670;2023-08-12T11:32:12;23.00;88.80
25108;DHT22;13090;53.422;7.670;2023-08-12T11:37:37;23.10;88.80
25108;DHT22;13090;53.422;7.670;2023-08-12T11:42:59;23.10;88.80
25108;DHT22;13090;53.422;7.670;2023-08-12T11:48:20;23.10;88.50
25108;DHT22;13090;53.422;7.670;2023-08-12T11:53:43;23.10;88.80
25108;DHT22;13090;53.422;7.670;2023-08-12T11:59:04;23.10;89.10
25108;DHT22;13090;53.422;7.670;2023-08-12T12:04:25;23.10;89.10
25108;DHT22;13090;53.422;7.670;2023-08-12T12:09:50;23.10;89.20
25108;DHT22;13090;53.422;7.670;2023-08-12T12:15:13;23.20;89.40
25108;DHT22;13090;53.422;7.670;2023-08-12T12:20:34;23.20;89.00
25108;DHT22;13090;53.422;7.670;2023-08-12T12:25:58;23.20;89.10
25108;DHT22;13090;53.422;7.670;2023-08-12T12:31:19;23.30;89.70
25108;DHT22;13090;53.422;7.670;2023-08-12T12:36:40;23.30;89.30
25108;DHT22;13090;53.422;7.670;2023-08-12T12:42:03;23.40;89.40
25108;DHT22;13090;53.422;7.670;2023-08-12T12:47:24;23.40;89.50
25108;DHT22;13090;53.422;7.670;2023-08-12T12:52:46;23.60;89.40
25108;DHT22;13090;53.422;7.670;2023-08-12T12:58:08;23.70;89.20
25108;DHT22;13090;53.422;7.670;2023-08-12T13:03:32;23.80;89.10
25108;DHT22;13090;53.422;7.670;2023-08-12T13:08:53;23.80;88.70
25108;DHT22;13090;53.422;7.670;2023-08-12T13:14:16;23.80;88.50
25108;DHT22;13090;53.422;7.670;2023-08-12T13:19:36;23.90;88.60
25108;DHT22;13090;53.422;7.670;2023-08-12T13:24:58;23.90;88.20
25108;DHT22;13090;53.422;7.670;2023-08-12T13:30:21;23.90;88.30
25108;DHT22;13090;53.422;7.670;2023-08-12T13:35:41;24.00;88.50
25108;DHT22;13090;53.422;7.670;2023-08-12T13:41:02;24.10;88.80
25108;DHT22;13090;53.422;7.670;2023-08-12T13:46:25;24.30;89.00
25108;DHT22;13090;53.422;7.670;2023-08-12T13:51:46;24.50;89.00
25108;DHT22;13090;53.422;7.670;2023-08-12T13:57:07;24.70;88.70
25108;DHT22;13090;53.422;7.670;2023-08-12T14:02:29;24.90;88.60
25108;DHT22;13090;53.422;7.670;2023-08-12T14:07:50;25.10;88.50
25108;DHT22;13090;53.422;7.670;2023-08-12T14:13:11;25.30;88.20
25108;DHT22;13090;53.422;7.670;2023-08-12T14:18:33;25.30;85.50
25108;DHT22;13090;53.422;7.670;2023-08-12T14:23:53;25.20;84.70
25108;DHT22;13090;53.422;7.670;2023-08-12T14:29:14;25.00;85.50
25108;DHT22;13090;53.422;7.670;2023-08-12T14:34:37;25.00;85.30
25108;DHT22;13090;53.422;7.670;2023-08-12T14:40:01;25.00;85.70
25108;DHT22;13090;53.422;7.670;2023-08-12T14:45:22;25.10;85.50
25108;DHT22;13090;53.422;7.670;2023-08-12T14:50:44;25.10;85.30
25108;DHT22;13090;53.422;7.670;2023-08-12T14:56:05;25.30;85.50
25108;DHT22;13090;53.422;7.670;2023-08-12T15:01:25;25.50;85.40
25108;DHT22;13090;53.422;7.670;2023-08-12T15:06:48;25.60;83.70
25108;DHT22;13090;53.422;7.670;2023-08-12T15:12:09;25.70;82.20
25108;DHT22;13090;53.422;7.670;2023-08-12T15:17:29;25.70;81.40
25108;DHT22;13090;53.422;7.670;2023-08-12T15:22:52;25.60;81.50
25108;DHT22;13090;53.422;7.670;2023-08-12T15:28:12;25.60;81.10
25108;DHT22;13090;53.422;7.670;2023-08-12T15:33:33;25.60;81.40
25108;DHT22;13090;53.422;7.670;2023-08-12T15:38:55;25.60;81.50
25108;DHT22;13090;53.422;7.670;2023-08-12T15:44:16;25.70;81.10
25108;DHT22;13090;53.422;7.670;2023-08-12T15:49:37;25.80;80.60
25108;DHT22;13090;53.422;7.670;2023-08-12T15:55:00;25.70;79.70
25108;DHT22;13090;53.422;7.670;2023-08-12T16:00:21;25.60;79.50
25108;DHT22;13090;53.422;7.670;2023-08-12T16:05:42;25.50;80.30
25108;DHT22;13090;53.422;7.670;2023-08-12T16:11:05;25.50;80.50
25108;DHT22;13090;53.422;7.670;2023-08-12T16:16:28;25.70;80.30
25108;DHT22;13090;53.422;7.670;2023-08-12T16:21:51;25.70;79.90
25108;DHT22;13090;53.422;7.670;2023-08-12T16:27:15;25.70;79.30
25108;DHT22;13090;53.422;7.670;2023-08-12T16:32:36;25.70;79.30
25108;DHT22;13090;53.422;7.670;2023-08-12T16:37:57;25.80;79.50
25108;DHT22;13090;53.422;7.670;2023-08-12T16:43:19;25.80;79.70
25108;DHT22;13090;53.422;7.670;2023-08-12T16:48:40;25.80;80.60
25108;DHT22;13090;53.422;7.670;2023-08-12T16:54:01;25.80;79.80
25108;DHT22;13090;53.422;7.670;2023-08-12T16:59:24;25.90;79.10
25108;DHT22;13090;53.422;7.670;2023-08-12T17:04:46;26.00;78.70
25108;DHT22;13090;53.422;7.670;2023-08-12T17:10:09;26.00;77.70
25108;DHT22;13090;53.422;7.670;2023-08-12T17:15:33;25.90;76.30
25108;DHT22;13090;53.422;7.670;2023-08-12T17:20:54;25.90;76.00
25108;DHT22;13090;53.422;7.670;2023-08-12T17:26:16;25.90;75.70
25108;DHT22;13090;53.422;7.670;2023-08-12T17:31:41;25.80;75.10
25108;DHT22;13090;53.422;7.670;2023-08-12T17:37:03;25.70;74.80
25108;DHT22;13090;53.422;7.670;2023-08-12T17:42:25;25.50;74.90
25108;DHT22;13090;53.422;7.670;2023-08-12T17:47:56;25.40;74.90
25108;DHT22;13090;53.422;7.670;2023-08-12T17:53:18;25.30;74.50
25108;DHT22;13090;53.422;7.670;2023-08-12T17:58:41;25.10;75.30
25108;DHT22;13090;53.422;7.670;2023-08-12T18:04:07;25.00;75.40
25108;DHT22;13090;53.422;7.670;2023-08-12T18:09:31;24.90;76.80
25108;DHT22;13090;53.422;7.670;2023-08-12T18:14:51;24.70;76.20
25108;DHT22;13090;53.422;7.670;2023-08-12T18:20:18;24.60;76.60
25108;DHT22;13090;53.422;7.670;2023-08-12T18:25:45;24.50;76.40
25108;DHT22;13090;53.422;7.670;2023-08-12T18:31:09;24.30;75.80
25108;DHT22;13090;53.422;7.670;2023-08-12T18:36:32;24.20;76.70
25108;DHT22;13090;53.422;7.670;2023-08-12T18:41:55;24.00;77.10
25108;DHT22;13090;53.422;7.670;2023-08-12T18:47:17;23.90;76.60
25108;DHT22;13090;53.422;7.670;2023-08-12T18:52:40;23.80;76.30
25108;DHT22;13090;53.422;7.670;2023-08-12T18:58:03;23.60;76.60
25108;DHT22;13090;53.422;7.670;2023-08-12T19:03:24;23.30;76.70
25108;DHT22;13090;53.422;7.670;2023-08-12T19:08:48;23.10;76.80
25108;DHT22;13090;53.422;7.670;2023-08-12T19:14:12;22.90;77.00
25108;DHT22;13090;53.422;7.670;2023-08-12T19:19:34;22.80;77.10
25108;DHT22;13090;53.422;7.670;2023-08-12T19:24:57;22.60;77.60
25108;DHT22;13090;53.422;7.670;2023-08-12T19:30:20;22.40;77.70
25108;DHT22;13090;53.422;7.670;2023-08-12T19:35:42;22.30;77.90
25108;DHT22;13090;53.422;7.670;2023-08-12T19:41:06;22.10;78.20
25108;DHT22;13090;53.422;7.670;2023-08-12T19:46:27;22.00;78.50
25108;DHT22;13090;53.422;7.670;2023-08-12T19:51:49;21.80;78.60
25108;DHT22;13090;53.422;7.670;2023-08-12T19:57:12;21.70;78.90
25108;DHT22;13090;53.422;7.670;2023-08-12T20:02:32;21.50;79.20
25108;DHT22;13090;53.422;7.670;2023-08-12T20:07:59;21.40;79.20
25108;DHT22;13090;53.422;7.670;2023-08-12T20:13:22;21.30;79.30
25108;DHT22;13090;53.422;7.670;2023-08-12T20:18:43;21.20;79.10
25108;DHT22;13090;53.422;7.670;2023-08-12T20:24:12;21.00;79.20
25108;DHT22;13090;53.422;7.670;2023-08-12T20:29:38;20.90;79.40
25108;DHT22;13090;53.422;7.670;2023-08-12T20:35:01;20.90;79.40
25108;DHT22;13090;53.422;7.670;2023-08-12T20:40:24;20.80;79.50
25108;DHT22;13090;53.422;7.670;2023-08-12T20:45:49;20.70;79.70
25108;DHT22;13090;53.422;7.670;2023-08-12T20:51:12;20.50;79.80
25108;DHT22;13090;53.422;7.670;2023-08-12T20:56:35;20.50;80.00
25108;DHT22;13090;53.422;7.670;2023-08-12T21:01:58;20.30;80.10
25108;DHT22;13090;53.422;7.670;2023-08-12T21:07:20;20.20;80.10
25108;DHT22;13090;53.422;7.670;2023-08-12T21:12:42;20.20;80.30
25108;DHT22;13090;53.422;7.670;2023-08-12T21:18:06;20.10;80.30
25108;DHT22;13090;53.422;7.670;2023-08-12T21:23:27;20.00;80.30
25108;DHT22;13090;53.422;7.670;2023-08-12T21:28:48;20.00;80.50
25108;DHT22;13090;53.422;7.670;2023-08-12T21:34:10;20.00;80.50
25108;DHT22;13090;53.422;7.670;2023-08-12T21:39:31;19.90;80.50
25108;DHT22;13090;53.422;7.670;2023-08-12T21:44:52;19.70;80.60
25108;DHT22;13090;53.422;7.670;2023-08-12T21:50:14;19.60;80.80
25108;DHT22;13090;53.422;7.670;2023-08-12T21:55:35;19.50;81.10
25108;DHT22;13090;53.422;7.670;2023-08-12T22:00:56;19.30;81.10
25108;DHT22;13090;53.422;7.670;2023-08-12T22:06:18;19.20;81.30
25108;DHT22;13090;53.422;7.670;2023-08-12T22:11:39;19.10;81.60
25108;DHT22;13090;53.422;7.670;2023-08-12T22:17:00;19.00;81.90
25108;DHT22;13090;53.422;7.670;2023-08-12T22:22:22;18.80;82.00
25108;DHT22;13090;53.422;7.670;2023-08-12T22:27:43;18.70;82.30
25108;DHT22;13090;53.422;7.670;2023-08-12T22:33:04;18.60;82.60
25108;DHT22;13090;53.422;7.670;2023-08-12T22:38:27;18.50;82.80
25108;DHT22;13090;53.422;7.670;2023-08-12T22:43:47;18.40;83.20
25108;DHT22;13090;53.422;7.670;2023-08-12T22:49:08;18.40;83.30
25108;DHT22;13090;53.422;7.670;2023-08-12T22:54:31;18.50;83.40
25108;DHT22;13090;53.422;7.670;2023-08-12T22:59:52;18.50;83.60
25108;DHT22;13090;53.422;7.670;2023-08-12T23:05:12;18.50;83.40
25108;DHT22;13090;53.422;7.670;2023-08-12T23:10:35;18.60;83.50
25108;DHT22;13090;53.422;7.670;2023-08-12T23:15:55;18.50;83.40
25108;DHT22;13090;53.422;7.670;2023-08-12T23:21:16;18.60;83.50
25108;DHT22;13090;53.422;7.670;2023-08-12T23:26:39;18.60;83.50
25108;DHT22;13090;53.422;7.670;2023-08-12T23:31:59;18.60;83.50
25108;DHT22;13090;53.422;7.670;2023-08-12T23:37:20;18.50;84.30
25108;DHT22;13090;53.422;7.670;2023-08-12T23:42:43;18.50;83.40
25108;DHT22;13090;53.422;7.670;2023-08-12T23:48:04;18.50;83.60
25108;DHT22;13090;53.422;7.670;2023-08-12T23:53:25;18.50;83.60
25108;DHT22;13090;53.422;7.670;2023-08-12T23:58:47;18.40;83.70
